Westfield, IA (51062)

7:20 AM CDT on October 02, 2014 (GMT -0500)
Northside Jones House | Change Station
CLOSE
Current Station
Personal Weather Station
Location: Sioux City, IA
Elevation: 1253 ft
Nearby Weather Stations

Elev 1253 ft 42.55 °N, 96.41 °W | Updated 3 minutes ago

Overcast
Overcast
54.0 °F
Feels Like 54.0 °F
N
0.0
Wind Variable Wind from North
Gusts 19.0 mph

Today
High -- | Low -- °F
--% Chance of Precip.
Yesterday
High -- | Low -- °F
Precip. -- in
7:24 AM 7:05 PM
First Quarter, 58% visible
Pressure 29.87 in
Visibility 5.0 miles
Clouds Scattered Clouds 400 ft
Mostly Cloudy 3900 ft
Overcast 9500 ft
Dew Point 36 °F
Humidity 51%
Rainfall -999.00 in
Snow Depth Not available.
UV 0 out of 12
Pollen 1.50 out of 12
Air Quality Not available.
Flu Activity Not available.
METAR KLRJ 021215Z AUTO 36008G18KT 5SM -RA SCT004 BKN039 OVC095 12/12 A2987 RMK AO2

More Conditions Fewer Conditions

Pressure 29.87 in
Visibility 5.0 miles
Clouds Scattered Clouds 400 ft
Mostly Cloudy 3900 ft
Overcast 9500 ft
Dew Point 36 °F
Humidity 51%
Rainfall -999.00 in
Snow Depth Not available.
UV 0 out of 12
Pollen 1.50 out of 12
Air Quality Not available.
Flu Activity Not available.
METAR KLRJ 021215Z AUTO 36008G18KT 5SM -RA SCT004 BKN039 OVC095 12/12 A2987 RMK AO2

More Conditions Fewer Conditions

10-Day Weather Forecast

Almanac

Astronomy

Oct. 02, 2014 Rise Set
Actual Time 7:24 AM CDT 7:05 PM CDT
Civil Twilight 6:56 AM CDT 7:33 PM CDT
Nautical Twilight 6:23 AM CDT 8:06 PM CDT
Astronomical Twilight 5:50 AM CDT 8:39 PM CDT
Moon 3:19 PM CDT 12:34 AM CDT
Length of Visible Light 12h 37m
Length of Day
11h 41m
Tomorrow will be 2m 51s shorter.
First Quarter, 58% of the Moon is Illuminated
Today
First Quarter
Oct 8
Full
Oct 15
Last Quarter
Oct 23
New
Oct 30
First Quarter

Today's Extremes

State Highs State Lows

Community

WunderPhotos

Upload Photos

1,758,223 photos uploaded!

WunderBlogs® & News

Nearby

Snow Depth

Station Depth Elevation
No new snow has been reported.

Earthquake Activity

City Distance Mag. Time & Date
No recent earthquake activity has been reported nearby.
Minimum magnitude displayed is 2.5.

Coastal Water Temperatures

Place Temperature
No Stations Reporting

Nearby Weather Stations